sensor_id;sensor_type;location;lat;lon;timestamp;temperature;humidity
52743;DHT22;55583;53.012;6.556;2022-11-12T00:00:22;5.70;99.90
52743;DHT22;55583;53.012;6.556;2022-11-12T00:02:48;5.60;99.90
52743;DHT22;55583;53.012;6.556;2022-11-12T00:05:14;5.60;99.90
52743;DHT22;55583;53.012;6.556;2022-11-12T00:07:39;5.60;99.90
52743;DHT22;55583;53.012;6.556;2022-11-12T00:10:05;5.60;99.90
52743;DHT22;55583;53.012;6.556;2022-11-12T00:12:31;5.50;99.90
52743;DHT22;55583;53.012;6.556;2022-11-12T00:14:57;5.50;99.90
52743;DHT22;55583;53.012;6.556;2022-11-12T00:17:22;5.50;99.90
52743;DHT22;55583;53.012;6.556;2022-11-12T00:19:54;5.40;99.90
52743;DHT22;55583;53.012;6.556;2022-11-12T00:22:21;5.40;99.90
52743;DHT22;55583;53.012;6.556;2022-11-12T00:24:47;5.40;99.90
52743;DHT22;55583;53.012;6.556;2022-11-12T00:27:12;5.40;99.90
52743;DHT22;55583;53.012;6.556;2022-11-12T00:29:38;5.40;99.90
52743;DHT22;55583;53.012;6.556;2022-11-12T00:32:07;5.40;99.90
52743;DHT22;55583;53.012;6.556;2022-11-12T00:34:34;5.40;99.90
52743;DHT22;55583;53.012;6.556;2022-11-12T00:36:59;5.40;99.90
52743;DHT22;55583;53.012;6.556;2022-11-12T00:39:25;5.40;99.90
52743;DHT22;55583;53.012;6.556;2022-11-12T00:41:51;5.30;99.90
52743;DHT22;55583;53.012;6.556;2022-11-12T00:44:17;5.30;99.90
52743;DHT22;55583;53.012;6.556;2022-11-12T00:46:43;5.20;99.90
52743;DHT22;55583;53.012;6.556;2022-11-12T00:49:08;5.30;99.90
52743;DHT22;55583;53.012;6.556;2022-11-12T00:51:34;5.30;99.90
52743;DHT22;55583;53.012;6.556;2022-11-12T00:54:00;5.30;99.90
52743;DHT22;55583;53.012;6.556;2022-11-12T00:56:26;5.30;99.90
52743;DHT22;55583;53.012;6.556;2022-11-12T00:58:52;5.30;99.90
52743;DHT22;55583;53.012;6.556;2022-11-12T01:01:18;5.30;99.90
52743;DHT22;55583;53.012;6.556;2022-11-12T01:03:44;5.20;99.90
52743;DHT22;55583;53.012;6.556;2022-11-12T01:06:13;5.20;99.90
52743;DHT22;55583;53.012;6.556;2022-11-12T01:08:39;5.20;99.90
52743;DHT22;55583;53.012;6.556;2022-11-12T01:11:12;5.20;99.90
52743;DHT22;55583;53.012;6.556;2022-11-12T01:13:41;5.20;99.90
52743;DHT22;55583;53.012;6.556;2022-11-12T01:16:09;5.20;99.90
52743;DHT22;55583;53.012;6.556;2022-11-12T01:18:35;5.20;99.90
52743;DHT22;55583;53.012;6.556;2022-11-12T01:21:05;5.10;99.90
52743;DHT22;55583;53.012;6.556;2022-11-12T01:23:33;5.10;99.90
52743;DHT22;55583;53.012;6.556;2022-11-12T01:26:06;5.10;99.90
52743;DHT22;55583;53.012;6.556;2022-11-12T01:28:32;5.10;99.90
52743;DHT22;55583;53.012;6.556;2022-11-12T01:31:16;5.00;99.90
52743;DHT22;55583;53.012;6.556;2022-11-12T01:33:46;5.00;99.90
52743;DHT22;55583;53.012;6.556;2022-11-12T01:36:16;5.10;99.90
52743;DHT22;55583;53.012;6.556;2022-11-12T01:38:43;5.10;99.90
52743;DHT22;55583;53.012;6.556;2022-11-12T01:41:12;5.00;99.90
52743;DHT22;55583;53.012;6.556;2022-11-12T01:43:38;5.00;99.90
52743;DHT22;55583;53.012;6.556;2022-11-12T01:46:15;5.00;99.90
52743;DHT22;55583;53.012;6.556;2022-11-12T01:48:57;5.00;99.90
52743;DHT22;55583;53.012;6.556;2022-11-12T01:51:31;5.70;99.90
52743;DHT22;55583;53.012;6.556;2022-11-12T01:53:59;5.00;99.90
52743;DHT22;55583;53.012;6.556;2022-11-12T01:56:29;4.90;99.90
52743;DHT22;55583;53.012;6.556;2022-11-12T01:59:05;4.90;99.90
52743;DHT22;55583;53.012;6.556;2022-11-12T02:01:33;4.90;99.90
52743;DHT22;55583;53.012;6.556;2022-11-12T02:04:00;4.90;99.90
52743;DHT22;55583;53.012;6.556;2022-11-12T02:06:25;4.80;99.90
52743;DHT22;55583;53.012;6.556;2022-11-12T02:08:51;4.80;99.90
52743;DHT22;55583;53.012;6.556;2022-11-12T02:11:19;4.70;99.90
52743;DHT22;55583;53.012;6.556;2022-11-12T02:13:47;4.70;99.90
52743;DHT22;55583;53.012;6.556;2022-11-12T02:16:27;4.70;99.90
52743;DHT22;55583;53.012;6.556;2022-11-12T02:18:53;4.60;99.90
52743;DHT22;55583;53.012;6.556;2022-11-12T02:21:20;4.60;99.90
52743;DHT22;55583;53.012;6.556;2022-11-12T02:23:54;4.70;99.90
52743;DHT22;55583;53.012;6.556;2022-11-12T02:26:21;4.70;99.90
52743;DHT22;55583;53.012;6.556;2022-11-12T02:28:46;4.70;99.90
52743;DHT22;55583;53.012;6.556;2022-11-12T02:31:12;4.70;99.90
52743;DHT22;55583;53.012;6.556;2022-11-12T02:33:37;4.70;99.90
52743;DHT22;55583;53.012;6.556;2022-11-12T02:36:03;4.60;99.90
52743;DHT22;55583;53.012;6.556;2022-11-12T02:38:29;4.60;99.90
52743;DHT22;55583;53.012;6.556;2022-11-12T02:40:54;4.60;99.90
52743;DHT22;55583;53.012;6.556;2022-11-12T02:43:23;4.60;99.90
52743;DHT22;55583;53.012;6.556;2022-11-12T02:45:48;5.80;99.90
52743;DHT22;55583;53.012;6.556;2022-11-12T02:48:14;4.60;99.90
52743;DHT22;55583;53.012;6.556;2022-11-12T02:50:40;4.60;99.90
52743;DHT22;55583;53.012;6.556;2022-11-12T02:53:05;4.60;99.90
52743;DHT22;55583;53.012;6.556;2022-11-12T02:55:31;4.60;99.90
52743;DHT22;55583;53.012;6.556;2022-11-12T02:57:58;4.50;99.90
52743;DHT22;55583;53.012;6.556;2022-11-12T03:00:24;6.20;99.90
52743;DHT22;55583;53.012;6.556;2022-11-12T03:02:49;4.60;99.90
52743;DHT22;55583;53.012;6.556;2022-11-12T03:05:28;4.60;99.90
52743;DHT22;55583;53.012;6.556;2022-11-12T03:07:59;4.60;99.90
52743;DHT22;55583;53.012;6.556;2022-11-12T03:10:26;4.60;99.90
52743;DHT22;55583;53.012;6.556;2022-11-12T03:12:53;4.60;99.90
52743;DHT22;55583;53.012;6.556;2022-11-12T03:15:20;4.50;99.90
52743;DHT22;55583;53.012;6.556;2022-11-12T03:17:48;4.50;99.90
52743;DHT22;55583;53.012;6.556;2022-11-12T03:20:14;4.50;99.90
52743;DHT22;55583;53.012;6.556;2022-11-12T03:22:40;4.50;99.90
52743;DHT22;55583;53.012;6.556;2022-11-12T03:25:07;4.50;99.90
52743;DHT22;55583;53.012;6.556;2022-11-12T03:27:33;4.50;99.90
52743;DHT22;55583;53.012;6.556;2022-11-12T03:29:59;4.40;99.90
52743;DHT22;55583;53.012;6.556;2022-11-12T03:32:24;4.40;99.90
52743;DHT22;55583;53.012;6.556;2022-11-12T03:34:50;4.40;99.90
52743;DHT22;55583;53.012;6.556;2022-11-12T03:37:16;4.40;99.90
52743;DHT22;55583;53.012;6.556;2022-11-12T03:39:41;4.40;99.90
52743;DHT22;55583;53.012;6.556;2022-11-12T03:42:07;4.40;99.90
52743;DHT22;55583;53.012;6.556;2022-11-12T03:44:33;4.30;99.90
52743;DHT22;55583;53.012;6.556;2022-11-12T03:46:58;4.30;99.90
52743;DHT22;55583;53.012;6.556;2022-11-12T03:49:24;4.30;99.90
52743;DHT22;55583;53.012;6.556;2022-11-12T03:51:49;4.30;99.90
52743;DHT22;55583;53.012;6.556;2022-11-12T03:54:15;4.70;99.90
52743;DHT22;55583;53.012;6.556;2022-11-12T03:56:41;4.20;99.90
52743;DHT22;55583;53.012;6.556;2022-11-12T03:59:06;4.30;99.90
52743;DHT22;55583;53.012;6.556;2022-11-12T04:01:32;4.20;99.90
52743;DHT22;55583;53.012;6.556;2022-11-12T04:03:57;4.20;99.90
52743;DHT22;55583;53.012;6.556;2022-11-12T04:06:23;4.20;99.90
52743;DHT22;55583;53.012;6.556;2022-11-12T04:09:07;4.10;99.90
52743;DHT22;55583;53.012;6.556;2022-11-12T04:11:33;4.00;99.90
52743;DHT22;55583;53.012;6.556;2022-11-12T04:13:58;4.00;99.90
52743;DHT22;55583;53.012;6.556;2022-11-12T04:16:25;4.00;99.90
52743;DHT22;55583;53.012;6.556;2022-11-12T04:19:11;4.00;99.90
52743;DHT22;55583;53.012;6.556;2022-11-12T04:22:07;4.00;99.90
52743;DHT22;55583;53.012;6.556;2022-11-12T04:24:39;4.00;99.90
52743;DHT22;55583;53.012;6.556;2022-11-12T04:27:28;4.10;99.90
52743;DHT22;55583;53.012;6.556;2022-11-12T04:29:54;4.60;99.90
52743;DHT22;55583;53.012;6.556;2022-11-12T04:32:50;4.10;99.90
52743;DHT22;55583;53.012;6.556;2022-11-12T04:35:17;4.00;99.90
52743;DHT22;55583;53.012;6.556;2022-11-12T04:37:44;4.00;99.90
52743;DHT22;55583;53.012;6.556;2022-11-12T04:40:23;3.90;99.90
52743;DHT22;55583;53.012;6.556;2022-11-12T04:43:10;3.90;99.90
52743;DHT22;55583;53.012;6.556;2022-11-12T04:45:55;3.80;99.90
52743;DHT22;55583;53.012;6.556;2022-11-12T04:48:21;3.80;99.90
52743;DHT22;55583;53.012;6.556;2022-11-12T04:50:52;3.80;99.90
52743;DHT22;55583;53.012;6.556;2022-11-12T04:53:18;3.90;99.90
52743;DHT22;55583;53.012;6.556;2022-11-12T04:55:43;3.90;99.90
52743;DHT22;55583;53.012;6.556;2022-11-12T04:58:09;4.00;99.90
52743;DHT22;55583;53.012;6.556;2022-11-12T05:00:35;3.90;99.90
52743;DHT22;55583;53.012;6.556;2022-11-12T05:03:00;3.90;99.90
52743;DHT22;55583;53.012;6.556;2022-11-12T05:05:26;3.90;99.90
52743;DHT22;55583;53.012;6.556;2022-11-12T05:07:52;3.90;99.90
52743;DHT22;55583;53.012;6.556;2022-11-12T05:10:17;3.90;99.90
52743;DHT22;55583;53.012;6.556;2022-11-12T05:12:51;5.00;99.90
52743;DHT22;55583;53.012;6.556;2022-11-12T05:15:17;3.90;99.90
52743;DHT22;55583;53.012;6.556;2022-11-12T05:17:43;3.90;99.90
52743;DHT22;55583;53.012;6.556;2022-11-12T05:20:10;3.90;99.90
52743;DHT22;55583;53.012;6.556;2022-11-12T05:22:36;3.90;99.90
52743;DHT22;55583;53.012;6.556;2022-11-12T05:25:03;3.80;99.90
52743;DHT22;55583;53.012;6.556;2022-11-12T05:27:28;3.80;99.90
52743;DHT22;55583;53.012;6.556;2022-11-12T05:29:54;3.80;99.90
52743;DHT22;55583;53.012;6.556;2022-11-12T05:32:20;3.80;99.90
52743;DHT22;55583;53.012;6.556;2022-11-12T05:34:45;3.90;99.90
52743;DHT22;55583;53.012;6.556;2022-11-12T05:37:12;3.80;99.90
52743;DHT22;55583;53.012;6.556;2022-11-12T05:39:38;4.90;99.90
52743;DHT22;55583;53.012;6.556;2022-11-12T05:42:04;3.80;99.90
52743;DHT22;55583;53.012;6.556;2022-11-12T05:44:30;3.80;99.90
52743;DHT22;55583;53.012;6.556;2022-11-12T05:46:55;3.80;99.90
52743;DHT22;55583;53.012;6.556;2022-11-12T05:49:21;3.70;99.90
52743;DHT22;55583;53.012;6.556;2022-11-12T05:51:47;3.70;99.90
52743;DHT22;55583;53.012;6.556;2022-11-12T05:54:12;3.70;99.90
52743;DHT22;55583;53.012;6.556;2022-11-12T05:56:38;3.70;99.90
52743;DHT22;55583;53.012;6.556;2022-11-12T05:59:07;3.60;99.90
52743;DHT22;55583;53.012;6.556;2022-11-12T06:01:33;4.60;99.90
52743;DHT22;55583;53.012;6.556;2022-11-12T06:04:03;3.60;99.90
52743;DHT22;55583;53.012;6.556;2022-11-12T06:06:28;3.50;99.90
52743;DHT22;55583;53.012;6.556;2022-11-12T06:08:54;3.50;99.90
52743;DHT22;55583;53.012;6.556;2022-11-12T06:11:20;3.50;99.90
52743;DHT22;55583;53.012;6.556;2022-11-12T06:13:45;3.50;99.90
52743;DHT22;55583;53.012;6.556;2022-11-12T06:16:11;3.50;99.90
52743;DHT22;55583;53.012;6.556;2022-11-12T06:18:37;3.50;99.90
52743;DHT22;55583;53.012;6.556;2022-11-12T06:21:10;3.50;99.90
52743;DHT22;55583;53.012;6.556;2022-11-12T06:23:48;3.50;99.90
52743;DHT22;55583;53.012;6.556;2022-11-12T06:26:14;3.50;99.90
52743;DHT22;55583;53.012;6.556;2022-11-12T06:28:39;3.50;99.90
52743;DHT22;55583;53.012;6.556;2022-11-12T06:31:05;3.50;99.90
52743;DHT22;55583;53.012;6.556;2022-11-12T06:33:31;3.70;99.90
52743;DHT22;55583;53.012;6.556;2022-11-12T06:35:58;3.70;99.90
52743;DHT22;55583;53.012;6.556;2022-11-12T06:38:28;3.90;99.90
52743;DHT22;55583;53.012;6.556;2022-11-12T06:40:55;4.00;99.90
52743;DHT22;55583;53.012;6.556;2022-11-12T06:43:21;4.10;99.90
52743;DHT22;55583;53.012;6.556;2022-11-12T06:45:49;4.20;99.90
52743;DHT22;55583;53.012;6.556;2022-11-12T06:48:14;4.20;99.90
52743;DHT22;55583;53.012;6.556;2022-11-12T06:50:40;4.40;99.90
52743;DHT22;55583;53.012;6.556;2022-11-12T06:53:06;4.50;99.90
52743;DHT22;55583;53.012;6.556;2022-11-12T06:55:32;4.80;99.90
52743;DHT22;55583;53.012;6.556;2022-11-12T06:58:01;4.70;99.90
52743;DHT22;55583;53.012;6.556;2022-11-12T07:00:26;4.80;99.90
52743;DHT22;55583;53.012;6.556;2022-11-12T07:02:52;6.40;99.90
52743;DHT22;55583;53.012;6.556;2022-11-12T07:05:18;4.90;99.90
52743;DHT22;55583;53.012;6.556;2022-11-12T07:07:43;5.00;99.90
52743;DHT22;55583;53.012;6.556;2022-11-12T07:10:09;5.10;99.90
52743;DHT22;55583;53.012;6.556;2022-11-12T07:12:34;5.10;99.90
52743;DHT22;55583;53.012;6.556;2022-11-12T07:15:00;5.10;99.90
52743;DHT22;55583;53.012;6.556;2022-11-12T07:17:26;5.20;99.90
52743;DHT22;55583;53.012;6.556;2022-11-12T07:19:51;5.30;99.90
52743;DHT22;55583;53.012;6.556;2022-11-12T07:22:17;5.40;99.90
52743;DHT22;55583;53.012;6.556;2022-11-12T07:24:42;5.40;99.90
52743;DHT22;55583;53.012;6.556;2022-11-12T07:27:08;5.50;99.90
52743;DHT22;55583;53.012;6.556;2022-11-12T07:29:34;5.50;99.90
52743;DHT22;55583;53.012;6.556;2022-11-12T07:31:59;5.60;99.90
52743;DHT22;55583;53.012;6.556;2022-11-12T07:34:25;5.60;99.90
52743;DHT22;55583;53.012;6.556;2022-11-12T07:36:51;5.60;99.90
52743;DHT22;55583;53.012;6.556;2022-11-12T07:39:19;5.70;99.90
52743;DHT22;55583;53.012;6.556;2022-11-12T07:41:45;5.70;99.90
52743;DHT22;55583;53.012;6.556;2022-11-12T07:44:10;5.80;99.90
52743;DHT22;55583;53.012;6.556;2022-11-12T07:46:36;5.80;99.90
52743;DHT22;55583;53.012;6.556;2022-11-12T07:49:02;5.80;99.90
52743;DHT22;55583;53.012;6.556;2022-11-12T07:51:28;6.40;99.90
52743;DHT22;55583;53.012;6.556;2022-11-12T07:53:57;5.90;99.90
52743;DHT22;55583;53.012;6.556;2022-11-12T07:56:26;6.00;99.90
52743;DHT22;55583;53.012;6.556;2022-11-12T07:58:52;6.00;99.90
52743;DHT22;55583;53.012;6.556;2022-11-12T08:01:32;6.00;99.90
52743;DHT22;55583;53.012;6.556;2022-11-12T08:03:59;6.10;99.90
52743;DHT22;55583;53.012;6.556;2022-11-12T08:06:26;6.10;99.90
52743;DHT22;55583;53.012;6.556;2022-11-12T08:08:53;6.10;99.90
52743;DHT22;55583;53.012;6.556;2022-11-12T08:11:19;6.20;99.90
52743;DHT22;55583;53.012;6.556;2022-11-12T08:13:45;6.20;99.90
52743;DHT22;55583;53.012;6.556;2022-11-12T08:16:11;6.20;99.90
52743;DHT22;55583;53.012;6.556;2022-11-12T08:18:36;7.00;99.90
52743;DHT22;55583;53.012;6.556;2022-11-12T08:21:04;6.30;99.90
52743;DHT22;55583;53.012;6.556;2022-11-12T08:23:33;6.30;99.90
52743;DHT22;55583;53.012;6.556;2022-11-12T08:26:00;7.10;99.90
52743;DHT22;55583;53.012;6.556;2022-11-12T08:28:34;6.40;99.90
52743;DHT22;55583;53.012;6.556;2022-11-12T08:31:12;6.50;99.90
52743;DHT22;55583;53.012;6.556;2022-11-12T08:33:38;6.50;99.90
52743;DHT22;55583;53.012;6.556;2022-11-12T08:36:06;6.60;99.90
52743;DHT22;55583;53.012;6.556;2022-11-12T08:38:32;6.70;99.90
52743;DHT22;55583;53.012;6.556;2022-11-12T08:41:03;7.40;99.90
52743;DHT22;55583;53.012;6.556;2022-11-12T08:43:29;6.70;99.90
52743;DHT22;55583;53.012;6.556;2022-11-12T08:45:57;6.80;99.90
52743;DHT22;55583;53.012;6.556;2022-11-12T08:48:24;6.90;99.90
52743;DHT22;55583;53.012;6.556;2022-11-12T08:50:50;7.00;99.90
52743;DHT22;55583;53.012;6.556;2022-11-12T08:53:23;7.00;99.90
52743;DHT22;55583;53.012;6.556;2022-11-12T08:55:53;7.10;99.90
52743;DHT22;55583;53.012;6.556;2022-11-12T08:58:19;7.10;99.90
52743;DHT22;55583;53.012;6.556;2022-11-12T09:00:45;7.10;99.90
52743;DHT22;55583;53.012;6.556;2022-11-12T09:03:14;7.20;99.90
52743;DHT22;55583;53.012;6.556;2022-11-12T09:05:43;7.20;99.90
52743;DHT22;55583;53.012;6.556;2022-11-12T09:08:21;7.30;99.90
52743;DHT22;55583;53.012;6.556;2022-11-12T09:10:47;7.40;99.90
52743;DHT22;55583;53.012;6.556;2022-11-12T09:13:13;7.40;99.90
52743;DHT22;55583;53.012;6.556;2022-11-12T09:15:39;7.40;99.90
52743;DHT22;55583;53.012;6.556;2022-11-12T09:18:10;7.50;99.90
52743;DHT22;55583;53.012;6.556;2022-11-12T09:20:36;7.50;99.90
52743;DHT22;55583;53.012;6.556;2022-11-12T09:23:20;7.60;99.90
52743;DHT22;55583;53.012;6.556;2022-11-12T09:25:46;7.60;99.90
52743;DHT22;55583;53.012;6.556;2022-11-12T09:28:16;8.40;99.90
52743;DHT22;55583;53.012;6.556;2022-11-12T09:30:47;7.70;99.90
52743;DHT22;55583;53.012;6.556;2022-11-12T09:33:14;8.70;99.90
52743;DHT22;55583;53.012;6.556;2022-11-12T09:35:41;7.80;99.90
52743;DHT22;55583;53.012;6.556;2022-11-12T09:38:06;7.80;99.90
52743;DHT22;55583;53.012;6.556;2022-11-12T09:46:39;8.00;99.90
52743;DHT22;55583;53.012;6.556;2022-11-12T09:49:27;8.00;99.90
52743;DHT22;55583;53.012;6.556;2022-11-12T09:52:13;8.10;99.90
52743;DHT22;55583;53.012;6.556;2022-11-12T09:54:41;8.20;99.90
52743;DHT22;55583;53.012;6.556;2022-11-12T09:57:11;8.20;99.90
52743;DHT22;55583;53.012;6.556;2022-11-12T09:59:40;8.20;99.90
52743;DHT22;55583;53.012;6.556;2022-11-12T10:21:22;8.40;99.90
52743;DHT22;55583;53.012;6.556;2022-11-12T10:23:52;8.50;99.90
52743;DHT22;55583;53.012;6.556;2022-11-12T10:26:20;9.40;99.90
52743;DHT22;55583;53.012;6.556;2022-11-12T10:28:51;8.90;99.90
52743;DHT22;55583;53.012;6.556;2022-11-12T10:31:20;9.20;99.90
52743;DHT22;55583;53.012;6.556;2022-11-12T10:33:46;10.30;99.90
52743;DHT22;55583;53.012;6.556;2022-11-12T10:36:30;9.70;99.90
52743;DHT22;55583;53.012;6.556;2022-11-12T10:38:58;10.10;99.90
52743;DHT22;55583;53.012;6.556;2022-11-12T10:41:26;10.20;99.90
52743;DHT22;55583;53.012;6.556;2022-11-12T10:44:01;10.40;99.90
52743;DHT22;55583;53.012;6.556;2022-11-12T10:46:33;10.60;99.90
52743;DHT22;55583;53.012;6.556;2022-11-12T10:49:00;10.80;99.90
52743;DHT22;55583;53.012;6.556;2022-11-12T10:51:35;10.90;99.90
52743;DHT22;55583;53.012;6.556;2022-11-12T10:54:27;11.10;99.90
52743;DHT22;55583;53.012;6.556;2022-11-12T10:56:53;11.80;99.90
52743;DHT22;55583;53.012;6.556;2022-11-12T10:59:24;11.50;99.90
52743;DHT22;55583;53.012;6.556;2022-11-12T11:01:55;11.00;99.90
52743;DHT22;55583;53.012;6.556;2022-11-12T11:07:01;10.90;99.90
52743;DHT22;55583;53.012;6.556;2022-11-12T11:09:27;10.90;99.90
52743;DHT22;55583;53.012;6.556;2022-11-12T11:11:53;11.50;99.90
52743;DHT22;55583;53.012;6.556;2022-11-12T11:16:52;11.80;99.90
52743;DHT22;55583;53.012;6.556;2022-11-12T11:19:19;11.40;99.90
52743;DHT22;55583;53.012;6.556;2022-11-12T11:24:38;11.90;99.90
52743;DHT22;55583;53.012;6.556;2022-11-12T11:32:39;13.40;99.90
52743;DHT22;55583;53.012;6.556;2022-11-12T11:40:34;16.60;99.90
52743;DHT22;55583;53.012;6.556;2022-11-12T11:43:11;18.00;99.90
52743;DHT22;55583;53.012;6.556;2022-11-12T11:45:55;18.30;99.90
52743;DHT22;55583;53.012;6.556;2022-11-12T11:51:35;19.50;99.90
52743;DHT22;55583;53.012;6.556;2022-11-12T11:54:17;19.30;99.90
52743;DHT22;55583;53.012;6.556;2022-11-12T11:56:48;18.70;99.90
52743;DHT22;55583;53.012;6.556;2022-11-12T11:59:32;17.90;99.90
52743;DHT22;55583;53.012;6.556;2022-11-12T12:08:11;16.10;99.90
52743;DHT22;55583;53.012;6.556;2022-11-12T12:10:49;15.70;99.90
52743;DHT22;55583;53.012;6.556;2022-11-12T12:18:59;14.80;99.90
52743;DHT22;55583;53.012;6.556;2022-11-12T12:21:29;14.50;99.90
52743;DHT22;55583;53.012;6.556;2022-11-12T12:24:09;14.80;99.90
52743;DHT22;55583;53.012;6.556;2022-11-12T12:26:59;14.00;99.90
52743;DHT22;55583;53.012;6.556;2022-11-12T12:29:49;13.80;99.90
52743;DHT22;55583;53.012;6.556;2022-11-12T12:32:27;14.60;99.90
52743;DHT22;55583;53.012;6.556;2022-11-12T12:35:15;13.50;99.90
52743;DHT22;55583;53.012;6.556;2022-11-12T12:37:55;13.40;99.90
52743;DHT22;55583;53.012;6.556;2022-11-12T12:40:38;13.30;99.90
52743;DHT22;55583;53.012;6.556;2022-11-12T12:43:30;13.20;99.90
52743;DHT22;55583;53.012;6.556;2022-11-12T12:45:57;13.00;99.90
52743;DHT22;55583;53.012;6.556;2022-11-12T12:48:34;13.00;99.90
52743;DHT22;55583;53.012;6.556;2022-11-12T12:51:01;12.90;99.90
52743;DHT22;55583;53.012;6.556;2022-11-12T12:56:03;12.90;99.90
52743;DHT22;55583;53.012;6.556;2022-11-12T13:04:05;13.30;99.90
52743;DHT22;55583;53.012;6.556;2022-11-12T13:45:54;12.10;99.90
52743;DHT22;55583;53.012;6.556;2022-11-12T13:48:35;12.20;99.90
52743;DHT22;55583;53.012;6.556;2022-11-12T13:53:43;12.10;99.90
52743;DHT22;55583;53.012;6.556;2022-11-12T13:56:10;12.00;99.90
52743;DHT22;55583;53.012;6.556;2022-11-12T13:58:39;12.70;99.90
52743;DHT22;55583;53.012;6.556;2022-11-12T14:01:05;11.90;99.90
52743;DHT22;55583;53.012;6.556;2022-11-12T14:06:14;11.80;99.90
52743;DHT22;55583;53.012;6.556;2022-11-12T14:12:40;11.70;99.90
52743;DHT22;55583;53.012;6.556;2022-11-12T14:26:00;11.60;99.90
52743;DHT22;55583;53.012;6.556;2022-11-12T14:28:31;11.50;99.90
52743;DHT22;55583;53.012;6.556;2022-11-12T14:30:58;11.50;99.90
52743;DHT22;55583;53.012;6.556;2022-11-12T14:33:26;11.50;99.90
52743;DHT22;55583;53.012;6.556;2022-11-12T14:36:03;11.40;99.90
52743;DHT22;55583;53.012;6.556;2022-11-12T14:38:32;11.30;99.90
52743;DHT22;55583;53.012;6.556;2022-11-12T14:41:07;11.30;99.90
52743;DHT22;55583;53.012;6.556;2022-11-12T14:43:43;11.30;99.90
52743;DHT22;55583;53.012;6.556;2022-11-12T14:46:23;11.70;99.90
52743;DHT22;55583;53.012;6.556;2022-11-12T14:48:52;11.20;99.90
52743;DHT22;55583;53.012;6.556;2022-11-12T14:51:26;11.10;99.90
52743;DHT22;55583;53.012;6.556;2022-11-12T14:53:57;11.10;99.90
52743;DHT22;55583;53.012;6.556;2022-11-12T14:56:41;11.20;99.90
52743;DHT22;55583;53.012;6.556;2022-11-12T14:59:13;11.00;99.90
52743;DHT22;55583;53.012;6.556;2022-11-12T15:01:40;11.10;99.90
52743;DHT22;55583;53.012;6.556;2022-11-12T15:04:25;11.00;99.90
52743;DHT22;55583;53.012;6.556;2022-11-12T15:07:02;11.60;99.90
52743;DHT22;55583;53.012;6.556;2022-11-12T15:09:36;10.80;99.90
52743;DHT22;55583;53.012;6.556;2022-11-12T15:12:19;10.80;99.90
52743;DHT22;55583;53.012;6.556;2022-11-12T15:14:45;10.70;99.90
52743;DHT22;55583;53.012;6.556;2022-11-12T15:17:30;10.60;99.90
52743;DHT22;55583;53.012;6.556;2022-11-12T15:20:02;10.60;99.90
52743;DHT22;55583;53.012;6.556;2022-11-12T15:22:28;10.50;99.90
52743;DHT22;55583;53.012;6.556;2022-11-12T15:24:54;10.40;99.90
52743;DHT22;55583;53.012;6.556;2022-11-12T15:27:39;10.80;99.90
52743;DHT22;55583;53.012;6.556;2022-11-12T15:32:41;10.40;99.90
52743;DHT22;55583;53.012;6.556;2022-11-12T15:37:53;10.10;99.90
52743;DHT22;55583;53.012;6.556;2022-11-12T15:40:20;10.00;99.90
52743;DHT22;55583;53.012;6.556;2022-11-12T15:42:46;10.40;99.90
52743;DHT22;55583;53.012;6.556;2022-11-12T15:45:13;11.00;99.90
52743;DHT22;55583;53.012;6.556;2022-11-12T15:47:40;9.90;99.90
52743;DHT22;55583;53.012;6.556;2022-11-12T15:52:42;9.70;99.90
52743;DHT22;55583;53.012;6.556;2022-11-12T15:55:09;9.70;99.90
52743;DHT22;55583;53.012;6.556;2022-11-12T15:57:41;9.60;99.90
52743;DHT22;55583;53.012;6.556;2022-11-12T16:00:25;9.50;99.90
52743;DHT22;55583;53.012;6.556;2022-11-12T16:05:35;9.40;99.90
52743;DHT22;55583;53.012;6.556;2022-11-12T16:08:01;9.40;99.90
52743;DHT22;55583;53.012;6.556;2022-11-12T16:10:27;9.30;99.90
52743;DHT22;55583;53.012;6.556;2022-11-12T16:12:59;9.20;99.90
52743;DHT22;55583;53.012;6.556;2022-11-12T16:15:25;9.20;99.90
52743;DHT22;55583;53.012;6.556;2022-11-12T16:17:51;9.90;99.90
52743;DHT22;55583;53.012;6.556;2022-11-12T16:22:51;9.00;99.90
52743;DHT22;55583;53.012;6.556;2022-11-12T16:25:18;9.00;99.90
52743;DHT22;55583;53.012;6.556;2022-11-12T16:27:44;9.00;99.90
52743;DHT22;55583;53.012;6.556;2022-11-12T16:30:19;8.80;99.90
52743;DHT22;55583;53.012;6.556;2022-11-12T16:32:46;8.80;99.90
52743;DHT22;55583;53.012;6.556;2022-11-12T16:35:13;9.40;99.90
52743;DHT22;55583;53.012;6.556;2022-11-12T16:37:42;8.70;99.90
52743;DHT22;55583;53.012;6.556;2022-11-12T16:40:18;8.70;99.90
52743;DHT22;55583;53.012;6.556;2022-11-12T16:42:44;8.60;99.90
52743;DHT22;55583;53.012;6.556;2022-11-12T16:45:12;8.60;99.90
52743;DHT22;55583;53.012;6.556;2022-11-12T16:47:43;8.50;99.90
52743;DHT22;55583;53.012;6.556;2022-11-12T16:50:10;8.50;99.90
52743;DHT22;55583;53.012;6.556;2022-11-12T16:52:36;8.40;99.90
52743;DHT22;55583;53.012;6.556;2022-11-12T16:55:02;8.40;99.90
52743;DHT22;55583;53.012;6.556;2022-11-12T16:57:28;8.40;99.90
52743;DHT22;55583;53.012;6.556;2022-11-12T16:59:53;8.30;99.90
52743;DHT22;55583;53.012;6.556;2022-11-12T17:02:19;8.30;99.90
52743;DHT22;55583;53.012;6.556;2022-11-12T17:04:44;8.20;99.90
52743;DHT22;55583;53.012;6.556;2022-11-12T17:07:10;8.20;99.90
52743;DHT22;55583;53.012;6.556;2022-11-12T17:09:36;8.20;99.90
52743;DHT22;55583;53.012;6.556;2022-11-12T17:12:01;8.10;99.90
52743;DHT22;55583;53.012;6.556;2022-11-12T17:14:27;8.10;99.90
52743;DHT22;55583;53.012;6.556;2022-11-12T17:16:52;8.00;99.90
52743;DHT22;55583;53.012;6.556;2022-11-12T17:19:18;8.00;99.90
52743;DHT22;55583;53.012;6.556;2022-11-12T17:21:44;8.00;99.90
52743;DHT22;55583;53.012;6.556;2022-11-12T17:24:09;7.90;99.90
52743;DHT22;55583;53.012;6.556;2022-11-12T17:26:35;7.90;99.90
52743;DHT22;55583;53.012;6.556;2022-11-12T17:29:01;8.60;99.90
52743;DHT22;55583;53.012;6.556;2022-11-12T17:31:26;7.80;99.90
52743;DHT22;55583;53.012;6.556;2022-11-12T17:33:52;7.80;99.90
52743;DHT22;55583;53.012;6.556;2022-11-12T17:36:23;7.70;99.90
52743;DHT22;55583;53.012;6.556;2022-11-12T17:38:57;7.70;99.90
52743;DHT22;55583;53.012;6.556;2022-11-12T17:41:23;7.70;99.90
52743;DHT22;55583;53.012;6.556;2022-11-12T17:43:53;7.60;99.90
52743;DHT22;55583;53.012;6.556;2022-11-12T17:46:19;7.60;99.90
52743;DHT22;55583;53.012;6.556;2022-11-12T17:48:45;7.60;99.90
52743;DHT22;55583;53.012;6.556;2022-11-12T17:51:15;7.50;99.90
52743;DHT22;55583;53.012;6.556;2022-11-12T17:53:41;7.50;99.90
52743;DHT22;55583;53.012;6.556;2022-11-12T17:56:09;7.50;99.90
52743;DHT22;55583;53.012;6.556;2022-11-12T17:58:35;7.40;99.90
52743;DHT22;55583;53.012;6.556;2022-11-12T18:01:10;7.60;99.90
52743;DHT22;55583;53.012;6.556;2022-11-12T18:03:42;7.30;99.90
52743;DHT22;55583;53.012;6.556;2022-11-12T18:06:10;7.30;99.90
52743;DHT22;55583;53.012;6.556;2022-11-12T18:08:37;7.30;99.90
52743;DHT22;55583;53.012;6.556;2022-11-12T18:11:03;7.20;99.90
52743;DHT22;55583;53.012;6.556;2022-11-12T18:13:29;7.20;99.90